< Typhoon 195413 1954 Season Typhoon 195415 >
Typhoon 195414 (LORNA)
General InformationTrack Information on Google Maps || Disaster Info.ResourceGoogle EarthGE AnimationAtom FeedGeoJSON
Detalied Best Track (Time Zone = UTC)
Year Month Day Hour Lat. Long. Pressure (hPa) Wind (kt) Class Image Chart
1954 9 10 06 17.7 156.9 1006 0 2 -- Chart
1954 9 10 12 17.6 156.5 1008 0 2 -- Chart
1954 9 10 18 17.6 156.0 1006 0 2 -- Chart
1954 9 11 00 17.5 155.6 1008 0 2 -- Chart
1954 9 11 06 17.4 155.2 1004 0 2 -- Chart
1954 9 11 12 17.4 154.9 1006 0 2 -- Chart
1954 9 11 18 17.4 154.5 1004 0 2 -- Chart
1954 9 12 00 17.4 154.2 1000 0 9 -- Chart
1954 9 12 06 17.4 153.2 1000 0 9 -- Chart
1954 9 12 12 17.4 152.5 992 0 9 -- Chart
1954 9 12 18 17.4 151.9 990 0 9 -- Chart
1954 9 13 00 17.4 150.9 990 0 9 -- Chart
1954 9 13 06 16.8 150.1 990 0 9 -- Chart
1954 9 13 12 17.3 148.8 985 0 9 -- Chart
1954 9 13 18 16.5 147.5 985 0 9 -- Chart
1954 9 14 00 16.2 146.1 980 0 9 -- Chart
1954 9 14 06 16.6 145.0 980 0 9 -- Chart
1954 9 14 12 16.2 144.0 980 0 9 -- Chart
1954 9 14 18 16.8 143.0 960 0 9 -- Chart
1954 9 15 00 17.9 142.1 960 0 9 -- Chart
1954 9 15 06 18.7 141.1 950 0 9 -- Chart
1954 9 15 12 19.6 139.7 950 0 9 -- Chart
1954 9 15 18 20.3 139.0 950 0 9 -- Chart
1954 9 16 00 21.2 138.3 950 0 9 -- Chart
1954 9 16 06 22.6 137.6 950 0 9 -- Chart
1954 9 16 12 23.7 136.2 950 0 9 -- Chart
1954 9 16 18 25.3 136.0 950 0 9 -- Chart
1954 9 17 00 26.8 135.3 960 0 9 -- Chart
1954 9 17 06 27.8 134.3 960 0 9 -- Chart
1954 9 17 12 29.0 134.1 970 0 9 -- Chart
1954 9 17 18 30.6 134.3 970 0 9 -- Chart
1954 9 18 00 32.4 135.4 970 0 9 -- Chart
1954 9 18 06 33.5 136.7 970 0 9 -- Chart
1954 9 18 12 34.8 138.7 976 0 9 -- Chart
1954 9 18 18 36.2 141.7 976 0 9 -- Chart
1954 9 19 00 38.7 146.1 980 0 9 -- Chart
1954 9 19 06 40.5 151.0 980 0 9 -- Chart
1954 9 19 12 44.5 155.8 986 0 9 -- Chart
1954 9 19 18 47.0 160.0 984 0 9 -- Chart
1954 9 20 00 50.2 162.0 982 0 6 -- Chart
1954 9 20 06 52.0 164.0 980 0 6 -- Chart
1954 9 20 12 52.6 166.5 980 0 6 -- Chart
1954 9 20 18 52.9 168.9 982 0 6 -- Chart
1954 9 21 00 53.0 171.0 982 0 6 -- Chart
1954 9 21 06 53.0 173.0 980 0 6 -- Chart
1954 9 21 12 52.8 175.1 986 0 6 -- Chart
1954 9 21 18 52.0 177.8 990 0 6 -- Chart
1954 9 22 00 51.0 181.0 992 0 6 -- Chart
Japan Meteorological Agency Best Track Data | Correction Date : 1991-07-16
< Typhoon 195413 1954 Season Typhoon 195415 >

Help